sensor_id;sensor_type;location;lat;lon;timestamp;P1;durP1;ratioP1;P2;durP2;ratioP2
72284;SDS011;60220;53.552;10.092;2023-03-03T00:00:06;53.10;;;19.33;;
72284;SDS011;60220;53.552;10.092;2023-03-03T00:02:34;51.67;;;19.23;;
72284;SDS011;60220;53.552;10.092;2023-03-03T00:05:00;53.20;;;20.10;;
72284;SDS011;60220;53.552;10.092;2023-03-03T00:07:27;56.55;;;19.85;;
72284;SDS011;60220;53.552;10.092;2023-03-03T00:09:54;50.28;;;20.38;;
72284;SDS011;60220;53.552;10.092;2023-03-03T00:12:23;48.17;;;18.88;;
72284;SDS011;60220;53.552;10.092;2023-03-03T00:14:54;48.30;;;21.85;;
72284;SDS011;60220;53.552;10.092;2023-03-03T00:17:21;49.78;;;20.30;;
72284;SDS011;60220;53.552;10.092;2023-03-03T00:19:50;52.60;;;20.98;;
72284;SDS011;60220;53.552;10.092;2023-03-03T00:22:21;50.15;;;20.95;;
72284;SDS011;60220;53.552;10.092;2023-03-03T00:24:55;53.55;;;20.20;;
72284;SDS011;60220;53.552;10.092;2023-03-03T00:27:28;49.67;;;20.08;;
72284;SDS011;60220;53.552;10.092;2023-03-03T00:30:00;50.80;;;22.05;;
72284;SDS011;60220;53.552;10.092;2023-03-03T00:32:30;55.92;;;21.08;;
72284;SDS011;60220;53.552;10.092;2023-03-03T00:35:16;51.10;;;21.13;;
72284;SDS011;60220;53.552;10.092;2023-03-03T00:37:49;53.53;;;22.10;;
72284;SDS011;60220;53.552;10.092;2023-03-03T00:40:20;61.97;;;23.17;;
72284;SDS011;60220;53.552;10.092;2023-03-03T00:42:53;58.47;;;25.05;;
72284;SDS011;60220;53.552;10.092;2023-03-03T00:45:29;54.30;;;22.48;;
72284;SDS011;60220;53.552;10.092;2023-03-03T00:47:57;56.85;;;22.17;;
72284;SDS011;60220;53.552;10.092;2023-03-03T00:50:26;56.90;;;24.00;;
72284;SDS011;60220;53.552;10.092;2023-03-03T00:53:02;58.60;;;22.50;;
72284;SDS011;60220;53.552;10.092;2023-03-03T00:55:31;52.53;;;21.48;;
72284;SDS011;60220;53.552;10.092;2023-03-03T00:58:00;63.28;;;24.30;;
72284;SDS011;60220;53.552;10.092;2023-03-03T01:00:27;58.35;;;22.25;;
72284;SDS011;60220;53.552;10.092;2023-03-03T01:02:54;57.70;;;22.55;;
72284;SDS011;60220;53.552;10.092;2023-03-03T01:05:21;56.30;;;23.55;;
72284;SDS011;60220;53.552;10.092;2023-03-03T01:07:48;59.45;;;22.33;;
72284;SDS011;60220;53.552;10.092;2023-03-03T01:10:14;57.22;;;23.77;;
72284;SDS011;60220;53.552;10.092;2023-03-03T01:12:41;68.25;;;24.10;;
72284;SDS011;60220;53.552;10.092;2023-03-03T01:15:12;61.75;;;23.90;;
72284;SDS011;60220;53.552;10.092;2023-03-03T01:17:40;79.45;;;23.88;;
72284;SDS011;60220;53.552;10.092;2023-03-03T01:20:08;73.80;;;24.40;;
72284;SDS011;60220;53.552;10.092;2023-03-03T01:22:36;57.33;;;24.20;;
72284;SDS011;60220;53.552;10.092;2023-03-03T01:25:03;82.55;;;23.70;;
72284;SDS011;60220;53.552;10.092;2023-03-03T01:27:30;66.88;;;23.42;;
72284;SDS011;60220;53.552;10.092;2023-03-03T01:29:57;69.57;;;23.98;;
72284;SDS011;60220;53.552;10.092;2023-03-03T01:32:28;54.42;;;21.23;;
72284;SDS011;60220;53.552;10.092;2023-03-03T01:34:55;55.33;;;22.52;;
72284;SDS011;60220;53.552;10.092;2023-03-03T01:37:24;73.70;;;21.88;;
72284;SDS011;60220;53.552;10.092;2023-03-03T01:39:53;65.00;;;22.92;;
72284;SDS011;60220;53.552;10.092;2023-03-03T01:42:20;65.32;;;24.73;;
72284;SDS011;60220;53.552;10.092;2023-03-03T01:44:48;61.33;;;24.85;;
72284;SDS011;60220;53.552;10.092;2023-03-03T01:47:15;59.30;;;24.08;;
72284;SDS011;60220;53.552;10.092;2023-03-03T01:49:51;117.18;;;23.73;;
72284;SDS011;60220;53.552;10.092;2023-03-03T01:52:24;71.90;;;24.80;;
72284;SDS011;60220;53.552;10.092;2023-03-03T01:54:56;82.18;;;23.88;;
72284;SDS011;60220;53.552;10.092;2023-03-03T01:57:30;98.10;;;22.10;;
72284;SDS011;60220;53.552;10.092;2023-03-03T02:00:00;78.00;;;24.17;;
72284;SDS011;60220;53.552;10.092;2023-03-03T02:02:30;98.35;;;24.00;;
72284;SDS011;60220;53.552;10.092;2023-03-03T02:04:58;54.50;;;22.83;;
72284;SDS011;60220;53.552;10.092;2023-03-03T02:07:28;52.28;;;22.40;;
72284;SDS011;60220;53.552;10.092;2023-03-03T02:09:58;58.10;;;21.88;;
72284;SDS011;60220;53.552;10.092;2023-03-03T02:12:31;54.95;;;22.60;;
72284;SDS011;60220;53.552;10.092;2023-03-03T02:15:00;77.18;;;25.15;;
72284;SDS011;60220;53.552;10.092;2023-03-03T02:17:27;58.50;;;23.55;;
72284;SDS011;60220;53.552;10.092;2023-03-03T02:19:57;64.18;;;22.70;;
72284;SDS011;60220;53.552;10.092;2023-03-03T02:22:31;51.95;;;21.63;;
72284;SDS011;60220;53.552;10.092;2023-03-03T02:25:06;50.50;;;21.80;;
72284;SDS011;60220;53.552;10.092;2023-03-03T02:27:39;56.92;;;22.80;;
72284;SDS011;60220;53.552;10.092;2023-03-03T02:30:07;70.57;;;25.70;;
72284;SDS011;60220;53.552;10.092;2023-03-03T02:32:41;64.82;;;23.67;;
72284;SDS011;60220;53.552;10.092;2023-03-03T02:35:27;58.05;;;23.55;;
72284;SDS011;60220;53.552;10.092;2023-03-03T02:37:56;48.55;;;21.00;;
72284;SDS011;60220;53.552;10.092;2023-03-03T02:40:30;47.80;;;21.08;;
72284;SDS011;60220;53.552;10.092;2023-03-03T02:43:02;85.18;;;24.08;;
72284;SDS011;60220;53.552;10.092;2023-03-03T02:45:32;82.25;;;22.83;;
72284;SDS011;60220;53.552;10.092;2023-03-03T02:47:58;59.10;;;23.42;;
72284;SDS011;60220;53.552;10.092;2023-03-03T02:50:25;101.00;;;22.08;;
72284;SDS011;60220;53.552;10.092;2023-03-03T02:52:51;61.90;;;23.00;;
72284;SDS011;60220;53.552;10.092;2023-03-03T02:55:18;99.63;;;22.77;;
72284;SDS011;60220;53.552;10.092;2023-03-03T02:57:45;54.80;;;22.38;;
72284;SDS011;60220;53.552;10.092;2023-03-03T03:00:13;61.78;;;22.58;;
72284;SDS011;60220;53.552;10.092;2023-03-03T03:02:42;65.75;;;23.60;;
72284;SDS011;60220;53.552;10.092;2023-03-03T03:05:09;54.35;;;22.15;;
72284;SDS011;60220;53.552;10.092;2023-03-03T03:07:36;57.13;;;21.85;;
72284;SDS011;60220;53.552;10.092;2023-03-03T03:10:02;60.53;;;23.45;;
72284;SDS011;60220;53.552;10.092;2023-03-03T03:12:29;50.38;;;22.05;;
72284;SDS011;60220;53.552;10.092;2023-03-03T03:14:56;53.60;;;21.25;;
72284;SDS011;60220;53.552;10.092;2023-03-03T03:17:25;61.38;;;22.55;;
72284;SDS011;60220;53.552;10.092;2023-03-03T03:19:51;50.78;;;20.63;;
72284;SDS011;60220;53.552;10.092;2023-03-03T03:22:18;50.85;;;20.88;;
72284;SDS011;60220;53.552;10.092;2023-03-03T03:24:47;50.28;;;20.23;;
72284;SDS011;60220;53.552;10.092;2023-03-03T03:27:14;56.80;;;19.63;;
72284;SDS011;60220;53.552;10.092;2023-03-03T03:29:40;50.63;;;20.98;;
72284;SDS011;60220;53.552;10.092;2023-03-03T03:32:07;44.63;;;19.33;;
72284;SDS011;60220;53.552;10.092;2023-03-03T03:34:35;50.50;;;20.70;;
72284;SDS011;60220;53.552;10.092;2023-03-03T03:37:01;50.42;;;18.88;;
72284;SDS011;60220;53.552;10.092;2023-03-03T03:39:28;48.28;;;20.13;;
72284;SDS011;60220;53.552;10.092;2023-03-03T03:41:55;56.90;;;22.15;;
72284;SDS011;60220;53.552;10.092;2023-03-03T03:44:21;59.40;;;21.42;;
72284;SDS011;60220;53.552;10.092;2023-03-03T03:46:49;55.47;;;19.70;;
72284;SDS011;60220;53.552;10.092;2023-03-03T03:49:16;57.00;;;21.65;;
72284;SDS011;60220;53.552;10.092;2023-03-03T03:51:44;50.70;;;21.00;;
72284;SDS011;60220;53.552;10.092;2023-03-03T03:54:10;50.78;;;19.92;;
72284;SDS011;60220;53.552;10.092;2023-03-03T03:56:37;47.30;;;20.80;;
72284;SDS011;60220;53.552;10.092;2023-03-03T03:59:06;53.17;;;21.90;;
72284;SDS011;60220;53.552;10.092;2023-03-03T04:01:33;53.80;;;20.70;;
72284;SDS011;60220;53.552;10.092;2023-03-03T04:04:02;44.75;;;20.00;;
72284;SDS011;60220;53.552;10.092;2023-03-03T04:06:29;53.63;;;22.52;;
72284;SDS011;60220;53.552;10.092;2023-03-03T04:08:57;45.58;;;21.27;;
72284;SDS011;60220;53.552;10.092;2023-03-03T04:11:26;48.85;;;22.30;;
72284;SDS011;60220;53.552;10.092;2023-03-03T04:13:55;51.97;;;20.88;;
72284;SDS011;60220;53.552;10.092;2023-03-03T04:16:24;43.35;;;18.85;;
72284;SDS011;60220;53.552;10.092;2023-03-03T04:18:53;55.58;;;22.73;;
72284;SDS011;60220;53.552;10.092;2023-03-03T04:21:20;54.45;;;21.70;;
72284;SDS011;60220;53.552;10.092;2023-03-03T04:23:46;46.00;;;21.05;;
72284;SDS011;60220;53.552;10.092;2023-03-03T04:26:14;46.90;;;20.85;;
72284;SDS011;60220;53.552;10.092;2023-03-03T04:28:41;47.08;;;19.88;;
72284;SDS011;60220;53.552;10.092;2023-03-03T04:31:08;43.67;;;20.42;;
72284;SDS011;60220;53.552;10.092;2023-03-03T04:33:34;47.28;;;21.27;;
72284;SDS011;60220;53.552;10.092;2023-03-03T04:36:04;48.35;;;21.23;;
72284;SDS011;60220;53.552;10.092;2023-03-03T04:38:31;49.42;;;21.80;;
72284;SDS011;60220;53.552;10.092;2023-03-03T04:40:58;51.55;;;21.17;;
72284;SDS011;60220;53.552;10.092;2023-03-03T04:43:26;60.97;;;21.63;;
72284;SDS011;60220;53.552;10.092;2023-03-03T04:46:01;53.20;;;20.73;;
72284;SDS011;60220;53.552;10.092;2023-03-03T04:48:30;53.33;;;21.02;;
72284;SDS011;60220;53.552;10.092;2023-03-03T04:50:57;47.45;;;20.52;;
72284;SDS011;60220;53.552;10.092;2023-03-03T04:53:23;42.33;;;20.05;;
72284;SDS011;60220;53.552;10.092;2023-03-03T04:55:52;40.03;;;19.08;;
72284;SDS011;60220;53.552;10.092;2023-03-03T04:58:22;41.22;;;20.27;;
72284;SDS011;60220;53.552;10.092;2023-03-03T05:00:56;41.55;;;18.52;;
72284;SDS011;60220;53.552;10.092;2023-03-03T05:03:26;39.60;;;17.88;;
72284;SDS011;60220;53.552;10.092;2023-03-03T05:05:55;45.30;;;20.52;;
72284;SDS011;60220;53.552;10.092;2023-03-03T05:08:24;40.83;;;19.33;;
72284;SDS011;60220;53.552;10.092;2023-03-03T05:10:51;38.72;;;18.38;;
72284;SDS011;60220;53.552;10.092;2023-03-03T05:13:20;48.35;;;20.35;;
72284;SDS011;60220;53.552;10.092;2023-03-03T05:15:49;40.78;;;18.48;;
72284;SDS011;60220;53.552;10.092;2023-03-03T05:18:22;37.25;;;18.73;;
72284;SDS011;60220;53.552;10.092;2023-03-03T05:20:50;42.93;;;19.20;;
72284;SDS011;60220;53.552;10.092;2023-03-03T05:23:18;46.38;;;18.75;;
72284;SDS011;60220;53.552;10.092;2023-03-03T05:25:46;41.40;;;18.25;;
72284;SDS011;60220;53.552;10.092;2023-03-03T05:28:16;42.33;;;18.45;;
72284;SDS011;60220;53.552;10.092;2023-03-03T05:30:43;41.28;;;19.02;;
72284;SDS011;60220;53.552;10.092;2023-03-03T05:33:13;41.50;;;20.13;;
72284;SDS011;60220;53.552;10.092;2023-03-03T05:35:40;42.97;;;18.48;;
72284;SDS011;60220;53.552;10.092;2023-03-03T05:38:10;42.70;;;18.67;;
72284;SDS011;60220;53.552;10.092;2023-03-03T05:40:36;42.28;;;18.90;;
72284;SDS011;60220;53.552;10.092;2023-03-03T05:43:03;38.67;;;17.20;;
72284;SDS011;60220;53.552;10.092;2023-03-03T05:45:31;43.35;;;19.27;;
72284;SDS011;60220;53.552;10.092;2023-03-03T05:47:58;41.35;;;17.05;;
72284;SDS011;60220;53.552;10.092;2023-03-03T05:50:26;37.60;;;18.13;;
72284;SDS011;60220;53.552;10.092;2023-03-03T05:52:53;44.08;;;19.63;;
72284;SDS011;60220;53.552;10.092;2023-03-03T05:55:22;43.92;;;19.20;;
72284;SDS011;60220;53.552;10.092;2023-03-03T05:57:49;44.95;;;18.95;;
72284;SDS011;60220;53.552;10.092;2023-03-03T06:00:16;41.85;;;18.65;;
72284;SDS011;60220;53.552;10.092;2023-03-03T06:02:43;40.90;;;18.65;;
72284;SDS011;60220;53.552;10.092;2023-03-03T06:05:12;42.25;;;16.98;;
72284;SDS011;60220;53.552;10.092;2023-03-03T06:07:43;39.95;;;17.33;;
72284;SDS011;60220;53.552;10.092;2023-03-03T06:10:10;45.85;;;19.80;;
72284;SDS011;60220;53.552;10.092;2023-03-03T06:12:37;50.47;;;19.83;;
72284;SDS011;60220;53.552;10.092;2023-03-03T06:15:04;50.05;;;18.70;;
72284;SDS011;60220;53.552;10.092;2023-03-03T06:17:31;48.00;;;20.13;;
72284;SDS011;60220;53.552;10.092;2023-03-03T06:19:58;48.92;;;21.27;;
72284;SDS011;60220;53.552;10.092;2023-03-03T06:22:25;55.13;;;21.55;;
72284;SDS011;60220;53.552;10.092;2023-03-03T06:24:53;51.95;;;20.60;;
72284;SDS011;60220;53.552;10.092;2023-03-03T06:27:19;47.17;;;20.98;;
72284;SDS011;60220;53.552;10.092;2023-03-03T06:29:48;44.95;;;20.20;;
72284;SDS011;60220;53.552;10.092;2023-03-03T06:32:17;53.58;;;21.15;;
72284;SDS011;60220;53.552;10.092;2023-03-03T06:34:44;54.13;;;21.27;;
72284;SDS011;60220;53.552;10.092;2023-03-03T06:37:11;45.30;;;18.38;;
72284;SDS011;60220;53.552;10.092;2023-03-03T06:39:37;51.92;;;20.33;;
72284;SDS011;60220;53.552;10.092;2023-03-03T06:42:05;49.95;;;20.83;;
72284;SDS011;60220;53.552;10.092;2023-03-03T06:44:33;55.13;;;22.95;;
72284;SDS011;60220;53.552;10.092;2023-03-03T06:47:00;54.05;;;20.92;;
72284;SDS011;60220;53.552;10.092;2023-03-03T06:49:27;55.38;;;21.90;;
72284;SDS011;60220;53.552;10.092;2023-03-03T06:51:54;57.53;;;21.55;;
72284;SDS011;60220;53.552;10.092;2023-03-03T06:54:24;64.10;;;22.90;;
72284;SDS011;60220;53.552;10.092;2023-03-03T06:56:56;54.90;;;20.05;;
72284;SDS011;60220;53.552;10.092;2023-03-03T06:59:27;60.15;;;23.08;;
72284;SDS011;60220;53.552;10.092;2023-03-03T07:01:55;51.00;;;21.60;;
72284;SDS011;60220;53.552;10.092;2023-03-03T07:04:24;54.00;;;20.60;;
72284;SDS011;60220;53.552;10.092;2023-03-03T07:06:55;51.42;;;21.45;;
72284;SDS011;60220;53.552;10.092;2023-03-03T07:09:23;54.15;;;22.20;;
72284;SDS011;60220;53.552;10.092;2023-03-03T07:11:52;51.85;;;20.05;;
72284;SDS011;60220;53.552;10.092;2023-03-03T07:14:21;49.30;;;20.25;;
72284;SDS011;60220;53.552;10.092;2023-03-03T07:16:51;51.72;;;20.27;;
72284;SDS011;60220;53.552;10.092;2023-03-03T07:19:22;50.72;;;19.58;;
72284;SDS011;60220;53.552;10.092;2023-03-03T07:21:59;47.97;;;19.20;;
72284;SDS011;60220;53.552;10.092;2023-03-03T07:24:31;43.58;;;18.33;;
72284;SDS011;60220;53.552;10.092;2023-03-03T07:26:59;51.40;;;18.60;;
72284;SDS011;60220;53.552;10.092;2023-03-03T07:29:35;39.03;;;16.45;;
72284;SDS011;60220;53.552;10.092;2023-03-03T07:32:11;37.03;;;18.38;;
72284;SDS011;60220;53.552;10.092;2023-03-03T07:34:50;39.97;;;17.58;;
72284;SDS011;60220;53.552;10.092;2023-03-03T07:37:26;40.65;;;15.80;;
72284;SDS011;60220;53.552;10.092;2023-03-03T07:39:56;35.17;;;15.60;;
72284;SDS011;60220;53.552;10.092;2023-03-03T07:42:24;36.33;;;16.17;;
72284;SDS011;60220;53.552;10.092;2023-03-03T07:44:55;36.05;;;16.05;;
72284;SDS011;60220;53.552;10.092;2023-03-03T07:47:27;34.78;;;16.48;;
72284;SDS011;60220;53.552;10.092;2023-03-03T07:49:55;35.15;;;16.17;;
72284;SDS011;60220;53.552;10.092;2023-03-03T07:52:26;32.80;;;14.05;;
72284;SDS011;60220;53.552;10.092;2023-03-03T07:54:59;37.38;;;16.17;;
72284;SDS011;60220;53.552;10.092;2023-03-03T07:57:38;33.70;;;14.73;;
72284;SDS011;60220;53.552;10.092;2023-03-03T08:01:18;38.30;;;16.85;;
72284;SDS011;60220;53.552;10.092;2023-03-03T08:03:25;31.05;;;13.65;;
72284;SDS011;60220;53.552;10.092;2023-03-03T08:05:54;28.77;;;14.38;;
72284;SDS011;60220;53.552;10.092;2023-03-03T08:08:27;31.17;;;13.50;;
72284;SDS011;60220;53.552;10.092;2023-03-03T08:10:57;30.52;;;13.90;;
72284;SDS011;60220;53.552;10.092;2023-03-03T08:13:28;31.17;;;15.55;;
72284;SDS011;60220;53.552;10.092;2023-03-03T08:16:04;29.17;;;14.00;;
72284;SDS011;60220;53.552;10.092;2023-03-03T08:18:51;39.15;;;14.98;;
72284;SDS011;60220;53.552;10.092;2023-03-03T08:21:21;43.33;;;19.92;;
72284;SDS011;60220;53.552;10.092;2023-03-03T08:23:49;33.83;;;15.32;;
72284;SDS011;60220;53.552;10.092;2023-03-03T08:26:17;31.92;;;14.07;;
72284;SDS011;60220;53.552;10.092;2023-03-03T08:28:45;30.20;;;15.00;;
72284;SDS011;60220;53.552;10.092;2023-03-03T08:31:12;31.55;;;14.55;;
72284;SDS011;60220;53.552;10.092;2023-03-03T08:33:39;33.13;;;14.38;;
72284;SDS011;60220;53.552;10.092;2023-03-03T08:36:07;30.02;;;13.70;;
72284;SDS011;60220;53.552;10.092;2023-03-03T08:38:34;32.65;;;13.40;;
72284;SDS011;60220;53.552;10.092;2023-03-03T08:41:01;33.97;;;14.65;;
72284;SDS011;60220;53.552;10.092;2023-03-03T08:43:28;32.22;;;15.20;;
72284;SDS011;60220;53.552;10.092;2023-03-03T08:45:56;33.17;;;14.93;;
72284;SDS011;60220;53.552;10.092;2023-03-03T08:48:27;32.42;;;14.73;;
72284;SDS011;60220;53.552;10.092;2023-03-03T08:50:54;32.38;;;13.40;;
72284;SDS011;60220;53.552;10.092;2023-03-03T08:53:22;41.92;;;18.52;;
72284;SDS011;60220;53.552;10.092;2023-03-03T08:55:52;47.13;;;18.92;;
72284;SDS011;60220;53.552;10.092;2023-03-03T08:58:18;57.92;;;21.73;;
72284;SDS011;60220;53.552;10.092;2023-03-03T09:00:46;57.55;;;20.23;;
72284;SDS011;60220;53.552;10.092;2023-03-03T09:03:13;47.38;;;19.95;;
72284;SDS011;60220;53.552;10.092;2023-03-03T09:05:39;50.65;;;20.50;;
72284;SDS011;60220;53.552;10.092;2023-03-03T09:08:06;61.67;;;22.33;;
72284;SDS011;60220;53.552;10.092;2023-03-03T09:10:36;60.97;;;22.80;;
72284;SDS011;60220;53.552;10.092;2023-03-03T09:13:03;57.90;;;23.40;;
72284;SDS011;60220;53.552;10.092;2023-03-03T09:15:34;59.90;;;23.20;;
72284;SDS011;60220;53.552;10.092;2023-03-03T09:18:08;61.50;;;22.02;;
72284;SDS011;60220;53.552;10.092;2023-03-03T09:20:39;62.13;;;19.75;;
72284;SDS011;60220;53.552;10.092;2023-03-03T09:23:23;57.22;;;18.95;;
72284;SDS011;60220;53.552;10.092;2023-03-03T09:25:56;57.17;;;21.35;;
72284;SDS011;60220;53.552;10.092;2023-03-03T09:28:25;61.97;;;22.92;;
72284;SDS011;60220;53.552;10.092;2023-03-03T09:30:53;61.42;;;22.38;;
72284;SDS011;60220;53.552;10.092;2023-03-03T09:33:23;70.47;;;23.15;;
72284;SDS011;60220;53.552;10.092;2023-03-03T09:35:57;66.03;;;22.52;;
72284;SDS011;60220;53.552;10.092;2023-03-03T09:38:31;57.72;;;22.27;;
72284;SDS011;60220;53.552;10.092;2023-03-03T09:47:07;72.72;;;25.30;;
72284;SDS011;60220;53.552;10.092;2023-03-03T09:49:50;71.90;;;24.73;;
72284;SDS011;60220;53.552;10.092;2023-03-03T09:52:27;60.28;;;24.05;;
72284;SDS011;60220;53.552;10.092;2023-03-03T09:55:16;66.70;;;23.85;;
72284;SDS011;60220;53.552;10.092;2023-03-03T09:57:59;42.17;;;17.52;;
72284;SDS011;60220;53.552;10.092;2023-03-03T10:00:40;55.35;;;20.23;;
72284;SDS011;60220;53.552;10.092;2023-03-03T10:03:25;48.55;;;20.85;;
72284;SDS011;60220;53.552;10.092;2023-03-03T10:06:11;51.90;;;19.80;;
72284;SDS011;60220;53.552;10.092;2023-03-03T10:08:49;46.40;;;18.02;;
72284;SDS011;60220;53.552;10.092;2023-03-03T10:11:24;46.38;;;17.48;;
72284;SDS011;60220;53.552;10.092;2023-03-03T10:16:56;41.15;;;17.55;;
72284;SDS011;60220;53.552;10.092;2023-03-03T10:19:35;48.05;;;19.88;;
72284;SDS011;60220;53.552;10.092;2023-03-03T10:22:14;61.70;;;21.20;;
72284;SDS011;60220;53.552;10.092;2023-03-03T10:24:46;54.97;;;19.70;;
72284;SDS011;60220;53.552;10.092;2023-03-03T10:27:35;65.35;;;23.55;;
72284;SDS011;60220;53.552;10.092;2023-03-03T10:30:16;61.50;;;21.58;;
72284;SDS011;60220;53.552;10.092;2023-03-03T10:32:53;60.28;;;23.17;;
72284;SDS011;60220;53.552;10.092;2023-03-03T10:38:30;46.85;;;19.20;;
72284;SDS011;60220;53.552;10.092;2023-03-03T10:41:11;58.80;;;21.63;;
72284;SDS011;60220;53.552;10.092;2023-03-03T10:43:58;46.03;;;19.35;;
72284;SDS011;60220;53.552;10.092;2023-03-03T10:46:45;53.90;;;20.52;;
72284;SDS011;60220;53.552;10.092;2023-03-03T10:49:26;48.50;;;18.73;;
72284;SDS011;60220;53.552;10.092;2023-03-03T10:52:16;51.97;;;19.88;;
72284;SDS011;60220;53.552;10.092;2023-03-03T10:57:55;52.75;;;18.50;;
72284;SDS011;60220;53.552;10.092;2023-03-03T11:00:32;44.17;;;16.23;;
72284;SDS011;60220;53.552;10.092;2023-03-03T11:03:18;43.05;;;17.10;;
72284;SDS011;60220;53.552;10.092;2023-03-03T11:06:01;37.22;;;15.30;;
72284;SDS011;60220;53.552;10.092;2023-03-03T11:08:33;43.72;;;18.08;;
72284;SDS011;60220;53.552;10.092;2023-03-03T11:11:08;51.38;;;21.73;;
72284;SDS011;60220;53.552;10.092;2023-03-03T11:13:44;55.45;;;21.52;;
72284;SDS011;60220;53.552;10.092;2023-03-03T11:16:18;58.28;;;24.95;;
72284;SDS011;60220;53.552;10.092;2023-03-03T11:18:58;35.55;;;15.88;;
72284;SDS011;60220;53.552;10.092;2023-03-03T11:21:39;50.05;;;16.58;;
72284;SDS011;60220;53.552;10.092;2023-03-03T11:24:14;44.80;;;20.70;;
72284;SDS011;60220;53.552;10.092;2023-03-03T11:30:15;43.97;;;19.15;;
72284;SDS011;60220;53.552;10.092;2023-03-03T11:32:56;47.03;;;20.15;;
72284;SDS011;60220;53.552;10.092;2023-03-03T11:35:31;52.70;;;19.33;;
72284;SDS011;60220;53.552;10.092;2023-03-03T11:38:06;58.42;;;23.10;;
72284;SDS011;60220;53.552;10.092;2023-03-03T11:40:46;52.97;;;23.83;;
72284;SDS011;60220;53.552;10.092;2023-03-03T11:43:19;46.50;;;21.15;;
72284;SDS011;60220;53.552;10.092;2023-03-03T11:45:52;37.17;;;16.98;;
72284;SDS011;60220;53.552;10.092;2023-03-03T11:48:23;45.47;;;19.80;;
72284;SDS011;60220;53.552;10.092;2023-03-03T11:51:01;45.10;;;21.17;;
72284;SDS011;60220;53.552;10.092;2023-03-03T11:53:36;42.38;;;18.40;;
72284;SDS011;60220;53.552;10.092;2023-03-03T11:56:13;38.97;;;19.45;;
72284;SDS011;60220;53.552;10.092;2023-03-03T11:58:47;43.45;;;19.83;;
72284;SDS011;60220;53.552;10.092;2023-03-03T12:01:22;31.95;;;15.95;;
72284;SDS011;60220;53.552;10.092;2023-03-03T12:03:59;37.50;;;19.52;;
72284;SDS011;60220;53.552;10.092;2023-03-03T12:06:30;37.55;;;18.33;;
72284;SDS011;60220;53.552;10.092;2023-03-03T12:12:04;28.05;;;15.40;;
72284;SDS011;60220;53.552;10.092;2023-03-03T12:17:23;32.22;;;14.52;;
72284;SDS011;60220;53.552;10.092;2023-03-03T12:20:00;28.45;;;13.52;;
72284;SDS011;60220;53.552;10.092;2023-03-03T12:22:34;29.70;;;15.23;;
72284;SDS011;60220;53.552;10.092;2023-03-03T12:25:14;28.67;;;14.77;;
72284;SDS011;60220;53.552;10.092;2023-03-03T12:27:48;28.95;;;14.48;;
72284;SDS011;60220;53.552;10.092;2023-03-03T12:30:32;28.83;;;12.93;;
72284;SDS011;60220;53.552;10.092;2023-03-03T12:33:15;27.60;;;13.55;;
72284;SDS011;60220;53.552;10.092;2023-03-03T12:35:52;27.60;;;13.13;;
72284;SDS011;60220;53.552;10.092;2023-03-03T12:38:32;31.75;;;14.38;;
72284;SDS011;60220;53.552;10.092;2023-03-03T12:41:06;26.00;;;13.10;;
72284;SDS011;60220;53.552;10.092;2023-03-03T12:43:42;26.73;;;11.75;;
72284;SDS011;60220;53.552;10.092;2023-03-03T12:46:20;26.92;;;12.02;;
72284;SDS011;60220;53.552;10.092;2023-03-03T12:48:51;22.58;;;11.07;;
72284;SDS011;60220;53.552;10.092;2023-03-03T12:51:21;21.65;;;10.63;;
72284;SDS011;60220;53.552;10.092;2023-03-03T12:56:57;20.48;;;8.95;;
72284;SDS011;60220;53.552;10.092;2023-03-03T12:59:32;22.17;;;7.95;;
72284;SDS011;60220;53.552;10.092;2023-03-03T13:02:18;22.60;;;9.38;;
72284;SDS011;60220;53.552;10.092;2023-03-03T13:04:55;23.02;;;8.90;;
72284;SDS011;60220;53.552;10.092;2023-03-03T13:07:27;22.70;;;9.15;;
72284;SDS011;60220;53.552;10.092;2023-03-03T13:10:07;17.02;;;7.07;;
72284;SDS011;60220;53.552;10.092;2023-03-03T13:12:44;18.75;;;7.15;;
72284;SDS011;60220;53.552;10.092;2023-03-03T13:15:17;13.88;;;5.75;;
72284;SDS011;60220;53.552;10.092;2023-03-03T13:17:53;13.05;;;5.15;;
72284;SDS011;60220;53.552;10.092;2023-03-03T13:20:33;12.20;;;4.57;;
72284;SDS011;60220;53.552;10.092;2023-03-03T13:23:07;8.77;;;3.10;;
72284;SDS011;60220;53.552;10.092;2023-03-03T13:25:45;9.68;;;3.95;;
72284;SDS011;60220;53.552;10.092;2023-03-03T13:28:18;9.60;;;2.97;;
72284;SDS011;60220;53.552;10.092;2023-03-03T13:30:55;10.32;;;3.97;;
72284;SDS011;60220;53.552;10.092;2023-03-03T13:33:29;6.28;;;2.47;;
72284;SDS011;60220;53.552;10.092;2023-03-03T13:36:00;8.75;;;3.17;;
72284;SDS011;60220;53.552;10.092;2023-03-03T13:38:31;4.88;;;2.40;;
72284;SDS011;60220;53.552;10.092;2023-03-03T13:41:05;5.28;;;2.25;;
72284;SDS011;60220;53.552;10.092;2023-03-03T13:43:38;8.85;;;3.22;;
72284;SDS011;60220;53.552;10.092;2023-03-03T13:46:13;7.55;;;2.90;;
72284;SDS011;60220;53.552;10.092;2023-03-03T13:48:51;8.82;;;3.00;;
72284;SDS011;60220;53.552;10.092;2023-03-03T13:51:31;6.28;;;2.75;;
72284;SDS011;60220;53.552;10.092;2023-03-03T13:54:08;5.03;;;2.05;;
72284;SDS011;60220;53.552;10.092;2023-03-03T13:56:50;4.80;;;2.28;;
72284;SDS011;60220;53.552;10.092;2023-03-03T13:59:31;5.80;;;2.30;;
72284;SDS011;60220;53.552;10.092;2023-03-03T14:02:06;3.67;;;1.65;;
72284;SDS011;60220;53.552;10.092;2023-03-03T14:04:52;8.32;;;1.88;;
72284;SDS011;60220;53.552;10.092;2023-03-03T14:07:20;10.27;;;1.92;;
72284;SDS011;60220;53.552;10.092;2023-03-03T14:09:58;8.82;;;1.80;;
72284;SDS011;60220;53.552;10.092;2023-03-03T14:12:36;5.05;;;1.65;;
72284;SDS011;60220;53.552;10.092;2023-03-03T14:15:10;6.63;;;1.77;;
72284;SDS011;60220;53.552;10.092;2023-03-03T14:17:48;7.85;;;1.65;;
72284;SDS011;60220;53.552;10.092;2023-03-03T14:20:28;6.55;;;1.80;;
72284;SDS011;60220;53.552;10.092;2023-03-03T14:22:57;3.90;;;1.80;;
72284;SDS011;60220;53.552;10.092;2023-03-03T14:25:26;5.45;;;2.38;;
72284;SDS011;60220;53.552;10.092;2023-03-03T14:28:22;4.05;;;1.95;;
72284;SDS011;60220;53.552;10.092;2023-03-03T14:30:50;11.88;;;2.75;;
72284;SDS011;60220;53.552;10.092;2023-03-03T14:33:20;3.53;;;1.27;;
72284;SDS011;60220;53.552;10.092;2023-03-03T14:41:16;6.20;;;1.27;;
72284;SDS011;60220;53.552;10.092;2023-03-03T14:43:54;3.42;;;1.35;;
72284;SDS011;60220;53.552;10.092;2023-03-03T14:46:30;6.95;;;1.48;;
72284;SDS011;60220;53.552;10.092;2023-03-03T14:49:03;4.05;;;1.27;;
72284;SDS011;60220;53.552;10.092;2023-03-03T14:51:32;5.82;;;1.88;;
72284;SDS011;60220;53.552;10.092;2023-03-03T14:54:07;5.88;;;1.55;;
72284;SDS011;60220;53.552;10.092;2023-03-03T14:56:53;4.93;;;1.50;;
72284;SDS011;60220;53.552;10.092;2023-03-03T14:59:26;5.93;;;1.67;;
72284;SDS011;60220;53.552;10.092;2023-03-03T15:01:57;4.55;;;1.55;;
72284;SDS011;60220;53.552;10.092;2023-03-03T15:04:32;6.70;;;2.20;;
72284;SDS011;60220;53.552;10.092;2023-03-03T15:06:59;4.35;;;1.55;;
72284;SDS011;60220;53.552;10.092;2023-03-03T15:09:47;3.65;;;1.75;;